createdAt,value
2017-03-18T00:01:09.490Z,1001.55
2017-03-18T00:02:19.751Z,1001.6
2017-03-18T00:03:30.022Z,1001.57
2017-03-18T00:04:40.276Z,1001.61
2017-03-18T00:05:50.224Z,1001.6
2017-03-18T00:07:00.164Z,1001.6
2017-03-18T00:08:10.144Z,1001.59
2017-03-18T00:09:20.101Z,1001.5
2017-03-18T00:10:30.052Z,1001.52
2017-03-18T00:11:39.996Z,1001.55
2017-03-18T00:12:50.253Z,1001.52
2017-03-18T00:14:00.202Z,1001.51
2017-03-18T00:15:10.463Z,1001.49
2017-03-18T00:16:20.402Z,1001.44
2017-03-18T00:17:30.343Z,1001.45
2017-03-18T00:18:40.603Z,1001.54
2017-03-18T00:19:50.873Z,1001.44
2017-03-18T00:21:00.825Z,1001.41
2017-03-18T00:22:10.773Z,1001.42
2017-03-18T00:23:20.723Z,1001.42
2017-03-18T00:24:30.673Z,1001.41
2017-03-18T00:25:40.615Z,1001.36
2017-03-18T00:26:50.555Z,1001.44
2017-03-18T00:27:59.870Z,1001.47
2017-03-18T00:29:09.503Z,1001.43
2017-03-18T00:30:19.450Z,1001.38
2017-03-18T00:31:29.387Z,1001.39
2017-03-18T00:32:39.652Z,1001.4
2017-03-18T00:33:49.595Z,1001.37
2017-03-18T00:34:59.856Z,1001.28
2017-03-18T00:36:09.489Z,1001.28
2017-03-18T00:37:19.745Z,1001.22
2017-03-18T00:38:29.071Z,1001.22
2017-03-18T00:39:39.330Z,1001.18
2017-03-18T00:40:48.961Z,1001.16
2017-03-18T00:41:58.907Z,1001.08
2017-03-18T00:43:08.855Z,1001.07
2017-03-18T00:44:18.797Z,1001.01
2017-03-18T00:45:29.070Z,1001.02
2017-03-18T00:46:39.049Z,1001.02
2017-03-18T00:47:49.307Z,1000.96
2017-03-18T00:48:58.947Z,1000.97
2017-03-18T00:50:09.208Z,1000.95
2017-03-18T00:51:19.461Z,1000.9
2017-03-18T00:52:29.414Z,1001
2017-03-18T00:53:39.360Z,1000.94
2017-03-18T00:54:48.997Z,1000.91
2017-03-18T00:55:58.962Z,1000.85
2017-03-18T00:57:08.590Z,1000.85
2017-03-18T00:58:18.535Z,1000.85
2017-03-18T00:59:28.482Z,1000.84
2017-03-18T01:00:38.736Z,1000.82
2017-03-18T01:01:48.366Z,1000.78
2017-03-18T01:02:58.623Z,1000.76
2017-03-18T01:04:08.571Z,1000.74
2017-03-18T01:05:18.204Z,1000.73
2017-03-18T01:06:28.456Z,1000.72
2017-03-18T01:07:38.713Z,1000.72
2017-03-18T01:08:49.021Z,1000.65
2017-03-18T01:09:58.974Z,1000.57
2017-03-18T01:11:09.229Z,1000.62
2017-03-18T01:12:19.172Z,1000.56
2017-03-18T01:13:28.809Z,1000.53
2017-03-18T01:14:39.078Z,1000.56
2017-03-18T01:15:49.333Z,1000.57
2017-03-18T01:16:59.594Z,1000.48
2017-03-18T01:18:09.847Z,1000.42
2017-03-18T01:19:19.480Z,1000.42
2017-03-18T01:20:29.428Z,1000.4
2017-03-18T01:21:39.685Z,1000.36
2017-03-18T01:22:49.668Z,1000.29
2017-03-18T01:23:59.938Z,1000.3
2017-03-18T01:25:10.194Z,1000.26
2017-03-18T01:26:20.137Z,1000.27
2017-03-18T01:27:30.083Z,1000.16
2017-03-18T01:28:40.061Z,1000.25
2017-03-18T01:29:50.015Z,1000.14
2017-03-18T01:30:59.965Z,1000.15
2017-03-18T01:32:09.594Z,1000.16
2017-03-18T01:33:19.534Z,1000.17
2017-03-18T01:34:29.830Z,1000.2
2017-03-18T01:35:39.456Z,1000.19
2017-03-18T01:36:49.709Z,1000
2017-03-18T01:37:59.964Z,1000.03
2017-03-18T01:39:09.912Z,1000.01
2017-03-18T01:40:19.877Z,1000.12
2017-03-18T01:41:30.129Z,1000.04
2017-03-18T01:42:40.078Z,1000.03
2017-03-18T01:43:50.056Z,1000.24
2017-03-18T01:45:00.329Z,999.94
2017-03-18T01:46:09.963Z,1000.14
2017-03-18T01:47:19.910Z,1000.18
2017-03-18T01:48:29.852Z,999.98
2017-03-18T01:49:40.133Z,1000.07
2017-03-18T01:50:50.084Z,999.84
2017-03-18T01:52:00.332Z,999.96
2017-03-18T01:53:10.275Z,999.84
2017-03-18T01:54:20.537Z,999.99
2017-03-18T01:55:30.483Z,999.79
2017-03-18T01:56:40.743Z,999.73
2017-03-18T01:57:51.000Z,999.84
2017-03-18T01:59:00.949Z,999.82
2017-03-18T02:00:10.908Z,999.79
2017-03-18T02:01:20.851Z,999.68
2017-03-18T02:02:30.791Z,999.75
2017-03-18T02:03:40.431Z,999.95
2017-03-18T02:04:50.380Z,999.75
2017-03-18T02:06:00.328Z,999.66
2017-03-18T02:07:10.276Z,999.7
2017-03-18T02:08:20.534Z,999.55
2017-03-18T02:09:30.797Z,999.53
2017-03-18T02:10:40.433Z,999.57
2017-03-18T02:11:50.684Z,999.5
2017-03-18T02:13:00.937Z,999.54
2017-03-18T02:14:10.257Z,999.48
2017-03-18T02:15:19.893Z,999.49
2017-03-18T02:16:30.143Z,999.46
2017-03-18T02:17:40.399Z,999.64
2017-03-18T02:18:50.351Z,999.49
2017-03-18T02:19:59.988Z,999.54
2017-03-18T02:21:09.621Z,999.54
2017-03-18T02:22:19.562Z,999.44
2017-03-18T02:23:29.509Z,999.47
2017-03-18T02:24:39.463Z,999.37
2017-03-18T02:25:49.747Z,999.39
2017-03-18T02:26:59.999Z,999.37
2017-03-18T02:28:09.951Z,999.35
2017-03-18T02:29:19.899Z,999.33
2017-03-18T02:30:29.848Z,999.36
2017-03-18T02:31:40.105Z,999.26
2017-03-18T02:32:50.051Z,999.26
2017-03-18T02:34:00.304Z,999.16
2017-03-18T02:35:10.243Z,999.24
2017-03-18T02:36:19.870Z,999.16
2017-03-18T02:37:29.497Z,999.27
2017-03-18T02:38:39.757Z,999.16
2017-03-18T02:39:50.014Z,999.13
2017-03-18T02:41:00.314Z,999.07
2017-03-18T02:42:10.255Z,998.94
2017-03-18T02:43:20.231Z,998.97
2017-03-18T02:44:29.862Z,998.95
2017-03-18T02:45:39.807Z,998.91
2017-03-18T02:46:50.062Z,998.93
2017-03-18T02:48:00.319Z,998.8
2017-03-18T02:49:09.954Z,998.84
2017-03-18T02:50:19.584Z,998.82
2017-03-18T02:51:29.522Z,998.72
2017-03-18T02:52:39.152Z,998.79
2017-03-18T02:53:49.106Z,998.75
2017-03-18T02:54:59.057Z,998.76
2017-03-18T02:56:09.313Z,998.64
2017-03-18T02:57:19.568Z,998.59
2017-03-18T02:58:29.505Z,998.56
2017-03-18T02:59:39.140Z,998.53
2017-03-18T03:00:49.084Z,998.47
2017-03-18T03:01:59.027Z,998.45
2017-03-18T03:03:08.971Z,998.35
2017-03-18T03:04:18.603Z,998.32
2017-03-18T03:05:28.868Z,998.25
2017-03-18T03:06:38.808Z,998.22
2017-03-18T03:07:48.747Z,998.29
2017-03-18T03:08:59.010Z,998.22
2017-03-18T03:10:09.274Z,998.26
2017-03-18T03:11:18.901Z,998.18
2017-03-18T03:12:28.840Z,998.16
2017-03-18T03:13:39.136Z,998.16
2017-03-18T03:14:49.400Z,998.17
2017-03-18T03:15:59.355Z,998.11
2017-03-18T03:17:09.612Z,998.12
2017-03-18T03:18:19.556Z,998
2017-03-18T03:19:29.514Z,998.05
2017-03-18T03:20:39.767Z,997.97
2017-03-18T03:21:49.720Z,997.93
2017-03-18T03:22:59.348Z,997.93
2017-03-18T03:24:09.309Z,997.96
2017-03-18T03:25:19.298Z,997.96
2017-03-18T03:26:29.243Z,997.83
2017-03-18T03:27:39.505Z,997.87
2017-03-18T03:28:49.140Z,997.85
2017-03-18T03:29:59.410Z,997.77
2017-03-18T03:31:09.356Z,997.8
2017-03-18T03:32:19.610Z,997.73
2017-03-18T03:33:29.886Z,997.76
2017-03-18T03:34:40.148Z,997.69
2017-03-18T03:35:50.408Z,997.7
2017-03-18T03:37:00.689Z,997.74
2017-03-18T03:38:10.322Z,997.66
2017-03-18T03:39:20.317Z,997.63
2017-03-18T03:40:29.955Z,997.57
2017-03-18T03:41:40.211Z,997.59
2017-03-18T03:42:50.475Z,997.55
2017-03-18T03:44:00.144Z,997.57
2017-03-18T03:45:10.090Z,997.49
2017-03-18T03:46:20.039Z,997.5
2017-03-18T03:47:29.664Z,997.47
2017-03-18T03:48:39.926Z,997.47
2017-03-18T03:49:49.878Z,997.42
2017-03-18T03:50:59.829Z,997.45
2017-03-18T03:52:09.785Z,997.43
2017-03-18T03:53:20.041Z,997.43
2017-03-18T03:54:29.668Z,997.4
2017-03-18T03:55:39.923Z,997.33
2017-03-18T03:56:49.866Z,997.36
2017-03-18T03:57:59.815Z,997.38
2017-03-18T03:59:10.091Z,997.32
2017-03-18T04:00:20.348Z,997.4
2017-03-18T04:01:30.602Z,997.34
2017-03-18T04:02:40.547Z,997.21
2017-03-18T04:03:50.812Z,997.16
2017-03-18T04:05:00.769Z,997.17
2017-03-18T04:06:10.712Z,997.07
2017-03-18T04:07:20.340Z,997.02
2017-03-18T04:08:30.312Z,997.03
2017-03-18T04:09:40.573Z,996.96
2017-03-18T04:10:50.834Z,997
2017-03-18T04:12:01.096Z,996.95
2017-03-18T04:13:11.354Z,996.97
2017-03-18T04:14:20.990Z,996.92
2017-03-18T04:15:30.934Z,996.89
2017-03-18T04:16:41.191Z,996.91
2017-03-18T04:17:51.442Z,996.82
2017-03-18T04:19:01.389Z,996.81
2017-03-18T04:20:11.671Z,996.76
2017-03-18T04:21:21.305Z,996.8
2017-03-18T04:22:31.245Z,996.77
2017-03-18T04:23:41.517Z,996.72
2017-03-18T04:24:51.500Z,996.67
2017-03-18T04:26:01.767Z,996.69
2017-03-18T04:27:11.705Z,996.58
2017-03-18T04:28:21.657Z,996.58
2017-03-18T04:29:31.294Z,996.48
2017-03-18T04:30:41.274Z,996.42
2017-03-18T04:31:51.537Z,996.39
2017-03-18T04:33:01.797Z,996.48
2017-03-18T04:34:12.066Z,996.33
2017-03-18T04:35:22.017Z,996.19
2017-03-18T04:36:32.299Z,996.18
2017-03-18T04:37:42.272Z,996.19
2017-03-18T04:38:52.535Z,996.21
2017-03-18T04:40:02.206Z,996.17
2017-03-18T04:41:12.153Z,996.18
2017-03-18T04:42:21.466Z,996.11
2017-03-18T04:43:31.724Z,996.11
2017-03-18T04:44:41.674Z,996.13
2017-03-18T04:45:51.932Z,996.12
2017-03-18T04:47:01.558Z,996.02
2017-03-18T04:48:11.507Z,996
2017-03-18T04:49:21.148Z,995.92
2017-03-18T04:50:31.425Z,995.82
2017-03-18T04:51:41.679Z,995.83
2017-03-18T04:52:51.615Z,995.84
2017-03-18T04:54:01.879Z,995.89
2017-03-18T04:55:11.828Z,995.9
2017-03-18T04:56:21.773Z,995.91
2017-03-18T04:57:32.025Z,995.86
2017-03-18T04:58:41.987Z,995.87
2017-03-18T04:59:51.651Z,995.94
2017-03-18T05:01:01.606Z,995.79
2017-03-18T05:02:11.894Z,995.87
2017-03-18T05:03:21.841Z,995.81
2017-03-18T05:04:31.161Z,995.78
2017-03-18T05:05:41.106Z,995.78
2017-03-18T05:06:50.734Z,995.7
2017-03-18T05:08:00.368Z,995.68
2017-03-18T05:09:10.633Z,995.71
2017-03-18T05:10:20.581Z,995.66
2017-03-18T05:11:30.208Z,995.63
2017-03-18T05:12:40.466Z,995.55
2017-03-18T05:13:50.728Z,995.43
2017-03-18T05:15:01.030Z,995.45
2017-03-18T05:16:11.289Z,995.32
2017-03-18T05:17:21.226Z,995.25
2017-03-18T05:18:31.169Z,995.25
2017-03-18T05:19:41.432Z,995.08
2017-03-18T05:20:50.757Z,995.06
2017-03-18T05:22:00.709Z,995.01
2017-03-18T05:23:10.651Z,995.01
2017-03-18T05:24:19.656Z,994.97
2017-03-18T05:25:29.601Z,994.95
2017-03-18T05:26:39.860Z,994.89
2017-03-18T05:27:49.487Z,994.96
2017-03-18T05:28:59.120Z,995.01
2017-03-18T05:30:09.413Z,994.98
2017-03-18T05:31:18.415Z,994.96
2017-03-18T05:32:28.677Z,994.96
2017-03-18T05:33:38.657Z,994.97
2017-03-18T05:34:48.302Z,994.89
2017-03-18T05:35:58.563Z,994.79
2017-03-18T05:37:08.503Z,994.8
2017-03-18T05:38:17.823Z,994.72
2017-03-18T05:39:27.777Z,994.7
2017-03-18T05:40:38.034Z,994.71
2017-03-18T05:41:48.330Z,994.71
2017-03-18T05:42:58.583Z,994.72
2017-03-18T05:44:08.840Z,994.6
2017-03-18T05:45:19.098Z,994.59
2017-03-18T05:46:29.047Z,994.58
2017-03-18T05:47:39.308Z,994.5
2017-03-18T05:48:49.571Z,994.49
2017-03-18T05:49:59.835Z,994.42
2017-03-18T05:51:09.778Z,994.42
2017-03-18T05:52:19.095Z,994.33
2017-03-18T05:53:29.381Z,994.32
2017-03-18T05:54:39.641Z,994.31
2017-03-18T05:55:49.273Z,994.24
2017-03-18T05:56:59.216Z,994.26
2017-03-18T05:58:09.168Z,994.16
2017-03-18T05:59:19.444Z,994.02
2017-03-18T06:00:29.388Z,994.02
2017-03-18T06:01:39.649Z,994.1
2017-03-18T06:02:49.590Z,994.07
2017-03-18T06:03:59.866Z,993.98
2017-03-18T06:05:09.491Z,993.98
2017-03-18T06:06:19.435Z,993.94
2017-03-18T06:07:29.688Z,993.91
2017-03-18T06:08:39.951Z,993.96
2017-03-18T06:09:50.217Z,993.91
2017-03-18T06:11:00.164Z,993.92
2017-03-18T06:12:10.108Z,993.83
2017-03-18T06:13:19.462Z,993.8
2017-03-18T06:14:29.721Z,993.85
2017-03-18T06:15:39.978Z,993.86
2017-03-18T06:16:49.623Z,993.84
2017-03-18T06:17:59.567Z,993.83
2017-03-18T06:19:09.520Z,993.75
2017-03-18T06:20:19.779Z,993.78
2017-03-18T06:21:30.034Z,993.75
2017-03-18T06:22:40.286Z,993.68
2017-03-18T06:23:49.918Z,993.64
2017-03-18T06:24:59.870Z,993.63
2017-03-18T06:26:10.136Z,993.63
2017-03-18T06:27:20.396Z,993.51
2017-03-18T06:28:30.025Z,993.5
2017-03-18T06:29:40.330Z,993.47
2017-03-18T06:30:50.277Z,993.38
2017-03-18T06:32:00.218Z,993.29
2017-03-18T06:33:10.473Z,993.3
2017-03-18T06:34:20.424Z,993.27
2017-03-18T06:35:30.367Z,993.34
2017-03-18T06:36:40.624Z,993.26
2017-03-18T06:37:50.569Z,993.26
2017-03-18T06:39:00.515Z,993.21
2017-03-18T06:40:10.776Z,993.21
2017-03-18T06:41:21.027Z,993.15
2017-03-18T06:42:30.656Z,993.13
2017-03-18T06:43:40.945Z,993.05
2017-03-18T06:44:51.207Z,993.08
2017-03-18T06:46:00.530Z,993.02
2017-03-18T06:47:10.789Z,993.02
2017-03-18T06:48:20.740Z,993.02
2017-03-18T06:49:30.372Z,992.77
2017-03-18T06:50:40.315Z,992.83
2017-03-18T06:51:50.252Z,992.93
2017-03-18T06:53:00.513Z,992.86
2017-03-18T06:54:10.457Z,992.78
2017-03-18T06:55:20.416Z,992.88
2017-03-18T06:56:30.671Z,992.78
2017-03-18T06:57:40.925Z,992.83
2017-03-18T06:58:51.190Z,992.69
2017-03-18T07:00:01.451Z,992.65
2017-03-18T07:01:11.705Z,992.65
2017-03-18T07:02:21.966Z,992.55
2017-03-18T07:03:32.222Z,992.48
2017-03-18T07:04:42.166Z,992.4
2017-03-18T07:05:52.106Z,992.39
2017-03-18T07:07:02.050Z,992.37
2017-03-18T07:08:11.995Z,992.28
2017-03-18T07:09:21.937Z,992.34
2017-03-18T07:10:31.881Z,992.21
2017-03-18T07:11:41.829Z,992.12
2017-03-18T07:12:52.092Z,992.16
2017-03-18T07:14:02.371Z,992.14
2017-03-18T07:15:12.002Z,992.17
2017-03-18T07:16:21.943Z,992.07
2017-03-18T07:17:31.881Z,992.12
2017-03-18T07:18:41.822Z,992.1
2017-03-18T07:19:52.082Z,992.05
2017-03-18T07:21:02.027Z,992.07
2017-03-18T07:22:11.965Z,992.11
2017-03-18T07:23:21.908Z,992.06
2017-03-18T07:24:31.223Z,992.04
2017-03-18T07:25:40.852Z,991.91
2017-03-18T07:26:51.104Z,991.9
2017-03-18T07:28:01.357Z,991.97
2017-03-18T07:29:10.993Z,992.01
2017-03-18T07:30:21.255Z,991.97
2017-03-18T07:31:31.512Z,991.86
2017-03-18T07:32:41.768Z,991.86
2017-03-18T07:33:51.713Z,991.8
2017-03-18T07:35:01.671Z,991.79
2017-03-18T07:36:11.614Z,991.82
2017-03-18T07:37:21.874Z,991.8
2017-03-18T07:38:31.819Z,991.83
2017-03-18T07:39:42.084Z,991.72
2017-03-18T07:40:52.374Z,991.58
2017-03-18T07:42:02.636Z,991.61
2017-03-18T07:43:12.579Z,991.48
2017-03-18T07:44:22.212Z,991.52
2017-03-18T07:45:32.153Z,991.52
2017-03-18T07:46:42.413Z,991.47
2017-03-18T07:47:52.045Z,991.39
2017-03-18T07:49:01.676Z,991.38
2017-03-18T07:50:11.971Z,991.38
2017-03-18T07:51:21.920Z,991.45
2017-03-18T07:52:32.178Z,991.37
2017-03-18T07:53:42.446Z,991.27
2017-03-18T07:54:52.084Z,991.22
2017-03-18T07:56:01.719Z,991.28
2017-03-18T07:57:11.661Z,991.21
2017-03-18T07:58:21.597Z,991.17
2017-03-18T07:59:31.861Z,991.17
2017-03-18T08:00:41.800Z,991.26
2017-03-18T08:01:51.739Z,991.15
2017-03-18T08:03:01.366Z,991.06
2017-03-18T08:04:11.632Z,991.02
2017-03-18T08:05:21.266Z,991.1
2017-03-18T08:06:31.523Z,991.02
2017-03-18T08:07:41.783Z,991.21
2017-03-18T08:08:51.739Z,991.24
2017-03-18T08:10:02.004Z,991.18
2017-03-18T08:11:11.631Z,991.1
2017-03-18T08:12:21.257Z,991.06
2017-03-18T08:13:31.201Z,990.84
2017-03-18T08:14:41.466Z,990.76
2017-03-18T08:15:51.728Z,990.8
2017-03-18T08:17:01.990Z,990.78
2017-03-18T08:18:11.931Z,990.78
2017-03-18T08:19:21.885Z,990.77
2017-03-18T08:20:31.829Z,990.84
2017-03-18T08:21:41.771Z,990.87
2017-03-18T08:22:52.031Z,991.01
2017-03-18T08:24:01.671Z,991.01
2017-03-18T08:25:11.622Z,991.15
2017-03-18T08:26:21.249Z,991.13
2017-03-18T08:27:31.504Z,991.07
2017-03-18T08:28:41.769Z,991.06
2017-03-18T08:29:51.725Z,990.86
2017-03-18T08:31:01.680Z,990.61
2017-03-18T08:32:11.658Z,990.44
2017-03-18T08:33:21.290Z,990.49
2017-03-18T08:34:31.267Z,990.85
2017-03-18T08:35:41.535Z,990.69
2017-03-18T08:36:51.790Z,990.78
2017-03-18T08:38:01.425Z,990.73
2017-03-18T08:39:11.692Z,990.81
2017-03-18T08:40:21.961Z,990.84
2017-03-18T08:41:31.905Z,990.83
2017-03-18T08:42:41.537Z,990.68
2017-03-18T08:43:51.492Z,990.72
2017-03-18T08:45:01.124Z,990.72
2017-03-18T08:46:11.069Z,990.54
2017-03-18T08:47:21.011Z,990.72
2017-03-18T08:48:30.642Z,990.65
2017-03-18T08:49:40.591Z,990.64
2017-03-18T08:50:50.543Z,990.54
2017-03-18T08:52:00.167Z,990.4
2017-03-18T08:53:10.420Z,990.31
2017-03-18T08:54:20.059Z,990.44
2017-03-18T08:55:30.319Z,990.44
2017-03-18T08:56:40.262Z,990.42
2017-03-18T08:57:50.211Z,990.55
2017-03-18T08:59:00.165Z,990.46
2017-03-18T09:00:10.113Z,990.57
2017-03-18T09:01:20.065Z,990.46
2017-03-18T09:02:30.010Z,990.51
2017-03-18T09:03:39.012Z,990.59
2017-03-18T09:04:48.957Z,990.4
2017-03-18T09:05:58.594Z,990.34
2017-03-18T09:07:08.541Z,990.41
2017-03-18T09:08:18.801Z,990.3
2017-03-18T09:09:28.126Z,990.21
2017-03-18T09:10:38.070Z,990.08
2017-03-18T09:11:48.017Z,990.42
2017-03-18T09:12:58.284Z,990.55
2017-03-18T09:14:08.550Z,990.47
2017-03-18T09:15:18.496Z,990.54
2017-03-18T09:16:28.128Z,990.35
2017-03-18T09:17:38.067Z,990.31
2017-03-18T09:18:48.327Z,990.38
2017-03-18T09:19:58.276Z,990.34
2017-03-18T09:21:08.531Z,990.3
2017-03-18T09:22:18.474Z,990.27
2017-03-18T09:23:28.420Z,990.3
2017-03-18T09:24:38.365Z,990.2
2017-03-18T09:25:47.683Z,990.04
2017-03-18T09:26:57.622Z,990.02
2017-03-18T09:28:07.567Z,990.01
2017-03-18T09:29:17.829Z,990.13
2017-03-18T09:30:27.465Z,990.02
2017-03-18T09:31:37.725Z,990.17
2017-03-18T09:32:47.672Z,990.22
2017-03-18T09:33:57.635Z,990.32
2017-03-18T09:35:06.959Z,990.71
2017-03-18T09:36:16.909Z,990.33
2017-03-18T09:37:27.166Z,990.25
2017-03-18T09:38:37.428Z,990.2
2017-03-18T09:39:47.379Z,990.24
2017-03-18T09:40:57.644Z,990.3
2017-03-18T09:42:07.269Z,990.13
2017-03-18T09:43:16.896Z,990.16
2017-03-18T09:44:26.854Z,990.05
2017-03-18T09:45:36.801Z,990.13
2017-03-18T09:46:46.146Z,990.1
2017-03-18T09:47:56.089Z,990
2017-03-18T09:49:06.042Z,990.03
2017-03-18T09:50:16.307Z,990.12
2017-03-18T09:51:26.564Z,990.07
2017-03-18T09:52:36.823Z,990.03
2017-03-18T09:53:46.164Z,990.07
2017-03-18T09:54:56.111Z,990.05
2017-03-18T09:56:06.380Z,990.05
2017-03-18T09:57:16.641Z,990.05
2017-03-18T09:58:26.589Z,989.99
2017-03-18T09:59:36.226Z,990.1
2017-03-18T10:00:46.167Z,990
2017-03-18T10:01:56.424Z,990.11
2017-03-18T10:03:06.369Z,990.09
2017-03-18T10:04:16.322Z,989.98
2017-03-18T10:05:26.270Z,989.96
2017-03-18T10:06:36.208Z,989.93
2017-03-18T10:07:46.150Z,989.96
2017-03-18T10:08:56.427Z,990.02
2017-03-18T10:10:06.373Z,990.03
2017-03-18T10:11:16.008Z,989.84
2017-03-18T10:12:25.651Z,989.86
2017-03-18T10:13:35.916Z,989.96
2017-03-18T10:14:46.186Z,989.88
2017-03-18T10:15:56.136Z,989.78
2017-03-18T10:17:05.768Z,989.83
2017-03-18T10:18:16.027Z,989.81
2017-03-18T10:19:25.658Z,989.79
2017-03-18T10:20:35.913Z,989.78
2017-03-18T10:21:45.538Z,989.85
2017-03-18T10:22:55.165Z,989.68
2017-03-18T10:24:05.432Z,989.82
2017-03-18T10:25:15.703Z,989.72
2017-03-18T10:26:25.336Z,989.8
2017-03-18T10:27:35.595Z,989.82
2017-03-18T10:28:45.544Z,989.71
2017-03-18T10:29:55.499Z,989.73
2017-03-18T10:31:05.442Z,989.58
2017-03-18T10:32:15.388Z,989.62
2017-03-18T10:33:25.024Z,989.66
2017-03-18T10:34:34.969Z,989.57
2017-03-18T10:35:45.230Z,989.79
2017-03-18T10:36:55.203Z,989.7
2017-03-18T10:38:05.466Z,989.72
2017-03-18T10:39:15.418Z,989.58
2017-03-18T10:40:25.687Z,989.49
2017-03-18T10:41:35.947Z,989.52
2017-03-18T10:42:46.207Z,989.48
2017-03-18T10:43:56.469Z,989.49
2017-03-18T10:45:06.099Z,989.5
2017-03-18T10:46:15.730Z,989.52
2017-03-18T10:47:25.678Z,989.61
2017-03-18T10:48:35.942Z,989.57
2017-03-18T10:49:45.576Z,989.5
2017-03-18T10:50:55.210Z,989.48
2017-03-18T10:52:05.464Z,989.59
2017-03-18T10:53:15.736Z,989.45
2017-03-18T10:54:25.370Z,989.53
2017-03-18T10:55:35.627Z,989.65
2017-03-18T10:56:45.255Z,989.42
2017-03-18T10:57:55.511Z,989.43
2017-03-18T10:59:05.147Z,989.39
2017-03-18T11:00:15.098Z,989.78
2017-03-18T11:01:25.047Z,989.47
2017-03-18T11:02:34.987Z,989.52
2017-03-18T11:03:45.247Z,989.53
2017-03-18T11:04:55.224Z,989.53
2017-03-18T11:06:05.174Z,989.66
2017-03-18T11:07:15.124Z,989.72
2017-03-18T11:08:25.378Z,989.59
2017-03-18T11:09:35.012Z,989.57
2017-03-18T11:10:45.269Z,989.66
2017-03-18T11:11:55.210Z,989.65
2017-03-18T11:13:05.162Z,989.62
2017-03-18T11:14:15.153Z,989.59
2017-03-18T11:15:24.797Z,989.41
2017-03-18T11:16:35.060Z,989.64
2017-03-18T11:17:45.321Z,989.73
2017-03-18T11:18:54.955Z,989.73
2017-03-18T11:20:05.221Z,989.65
2017-03-18T11:21:14.852Z,989.78
2017-03-18T11:22:24.805Z,989.63
2017-03-18T11:23:34.439Z,990.19
2017-03-18T11:24:44.080Z,989.51
2017-03-18T11:25:54.344Z,989.5
2017-03-18T11:27:04.605Z,989.69
2017-03-18T11:28:14.237Z,989.91
2017-03-18T11:29:24.501Z,989.74
2017-03-18T11:30:34.131Z,990.03
2017-03-18T11:31:43.451Z,989.6
2017-03-18T11:32:53.092Z,989.97
2017-03-18T11:34:03.033Z,989.82
2017-03-18T11:35:13.288Z,989.77
2017-03-18T11:36:23.232Z,989.98
2017-03-18T11:37:33.195Z,990.02
2017-03-18T11:38:43.147Z,989.76
2017-03-18T11:39:53.107Z,990.17
2017-03-18T11:41:02.748Z,990.32
2017-03-18T11:42:13.003Z,990.38
2017-03-18T11:43:22.945Z,990.21
2017-03-18T11:44:32.258Z,990.23
2017-03-18T11:45:42.508Z,990.31
2017-03-18T11:46:52.134Z,990.38
2017-03-18T11:48:02.393Z,990.98
2017-03-18T11:49:12.352Z,990.85
2017-03-18T11:50:22.304Z,990.74
2017-03-18T11:51:32.252Z,990.6
2017-03-18T11:52:42.193Z,990.75
2017-03-18T11:53:52.452Z,991
2017-03-18T11:55:02.401Z,990.65
2017-03-18T11:56:12.653Z,990.7
2017-03-18T11:57:21.970Z,991.03
2017-03-18T11:58:31.970Z,990.96
2017-03-18T11:59:42.231Z,990.76
2017-03-18T12:00:52.487Z,990.92
2017-03-18T12:02:02.430Z,990.6
2017-03-18T12:03:12.373Z,991.22
2017-03-18T12:04:22.635Z,991.08
2017-03-18T12:05:32.580Z,990.94
2017-03-18T12:06:42.240Z,991.1
2017-03-18T12:07:52.505Z,990.86
2017-03-18T12:09:02.461Z,991.18
2017-03-18T12:10:12.723Z,991.22
2017-03-18T12:11:23.009Z,991.27
2017-03-18T12:12:32.827Z,991.3
2017-03-18T12:13:42.834Z,991.31
2017-03-18T12:14:52.792Z,991.49
2017-03-18T12:16:02.427Z,991.51
2017-03-18T12:17:12.724Z,991.45
2017-03-18T12:18:22.357Z,991.4
2017-03-18T12:19:32.311Z,991.47
2017-03-18T12:20:42.254Z,991.63
2017-03-18T12:21:52.515Z,991.51
2017-03-18T12:23:02.461Z,991.68
2017-03-18T12:24:12.410Z,991.66
2017-03-18T12:25:22.047Z,991.87
2017-03-18T12:26:31.991Z,991.64
2017-03-18T12:27:41.310Z,992.13
2017-03-18T12:28:51.575Z,992
2017-03-18T12:30:01.210Z,992.07
2017-03-18T12:31:11.479Z,992.11
2017-03-18T12:32:21.428Z,992.19
2017-03-18T12:33:31.370Z,992.04
2017-03-18T12:34:40.692Z,992.01
2017-03-18T12:35:50.319Z,992.2
2017-03-18T12:37:00.279Z,991.96
2017-03-18T12:38:10.540Z,992.29
2017-03-18T12:39:20.502Z,992.37
2017-03-18T12:40:30.450Z,992.26
2017-03-18T12:41:39.774Z,992.21
2017-03-18T12:42:49.402Z,992.39
2017-03-18T12:43:59.664Z,992.36
2017-03-18T12:45:09.964Z,992.48
2017-03-18T12:46:19.591Z,992.32
2017-03-18T12:47:29.545Z,992.45
2017-03-18T12:48:39.498Z,992.51
2017-03-18T12:49:49.758Z,992.33
2017-03-18T12:50:59.085Z,992.54
2017-03-18T12:52:08.754Z,992.87
2017-03-18T12:53:19.014Z,992.91
2017-03-18T12:54:28.966Z,992.82
2017-03-18T12:55:38.915Z,993.13
2017-03-18T12:56:48.855Z,993.02
2017-03-18T12:57:59.110Z,993.04
2017-03-18T12:59:09.373Z,992.99
2017-03-18T13:00:19.336Z,993.2
2017-03-18T13:01:29.282Z,993.11
2017-03-18T13:02:38.914Z,993.3
2017-03-18T13:03:48.866Z,993.37
2017-03-18T13:04:58.526Z,993.11
2017-03-18T13:06:08.157Z,993.39
2017-03-18T13:07:17.795Z,993.29
2017-03-18T13:08:27.746Z,993.28
2017-03-18T13:09:37.069Z,993.44
2017-03-18T13:10:47.324Z,993.34
2017-03-18T13:11:57.278Z,993.55
2017-03-18T13:13:07.554Z,993.5
2017-03-18T13:14:17.821Z,993.52
2017-03-18T13:15:27.773Z,993.57
2017-03-18T13:16:37.397Z,993.52
2017-03-18T13:17:47.356Z,993.36
2017-03-18T13:18:57.625Z,993.55
2017-03-18T13:20:07.879Z,993.53
2017-03-18T13:21:18.131Z,993.78
2017-03-18T13:22:28.070Z,993.84
2017-03-18T13:23:38.327Z,993.89
2017-03-18T13:24:48.275Z,994.08
2017-03-18T13:25:58.539Z,993.85
2017-03-18T13:27:08.164Z,993.99
2017-03-18T13:28:18.428Z,994.18
2017-03-18T13:29:28.061Z,994.04
2017-03-18T13:30:38.003Z,994.07
2017-03-18T13:31:47.631Z,993.93
2017-03-18T13:32:57.267Z,994.03
2017-03-18T13:34:07.215Z,994.05
2017-03-18T13:35:16.861Z,994.06
2017-03-18T13:36:26.801Z,994.16
2017-03-18T13:37:37.058Z,994.11
2017-03-18T13:38:46.377Z,994.28
2017-03-18T13:39:56.639Z,994.2
2017-03-18T13:41:06.590Z,994.25
2017-03-18T13:42:16.531Z,994.3
2017-03-18T13:43:26.792Z,994.16
2017-03-18T13:44:37.064Z,994.5
2017-03-18T13:45:46.691Z,994.35
2017-03-18T13:46:56.635Z,994.24
2017-03-18T13:48:06.294Z,994.49
2017-03-18T13:49:16.571Z,994.57
2017-03-18T13:50:26.839Z,994.65
2017-03-18T13:51:36.793Z,995.1
2017-03-18T13:52:46.420Z,994.74
2017-03-18T13:53:56.374Z,994.88
2017-03-18T13:55:06.639Z,995.37
2017-03-18T13:56:16.899Z,994.76
2017-03-18T13:57:26.836Z,994.91
2017-03-18T13:58:37.107Z,994.82
2017-03-18T13:59:47.053Z,994.9
2017-03-18T14:00:56.997Z,994.92
2017-03-18T14:02:07.252Z,994.94
2017-03-18T14:03:17.207Z,994.98
2017-03-18T14:04:27.152Z,995.17
2017-03-18T14:05:37.097Z,995.12
2017-03-18T14:06:47.043Z,995.06
2017-03-18T14:07:56.364Z,995.11
2017-03-18T14:09:06.327Z,995.23
2017-03-18T14:10:16.273Z,995.36
2017-03-18T14:11:26.229Z,995.19
2017-03-18T14:12:35.864Z,995.31
2017-03-18T14:13:45.815Z,995.38
2017-03-18T14:14:55.770Z,995.35
2017-03-18T14:16:05.402Z,995.3
2017-03-18T14:17:15.665Z,995.32
2017-03-18T14:18:24.980Z,995.29
2017-03-18T14:19:34.615Z,995.5
2017-03-18T14:20:44.875Z,995.41
2017-03-18T14:21:54.196Z,995.92
2017-03-18T14:23:03.521Z,995.59
2017-03-18T14:24:13.472Z,995.51
2017-03-18T14:25:23.740Z,995.58
2017-03-18T14:26:33.999Z,995.61
2017-03-18T14:27:43.631Z,995.59
2017-03-18T14:28:53.618Z,995.44
2017-03-18T14:30:03.880Z,995.67
2017-03-18T14:31:13.509Z,996.16
2017-03-18T14:32:23.454Z,996.21
2017-03-18T14:33:33.402Z,995.65